Leader Sw — 3EEY7 — position and weather

sailwx.info

Track history (hours):
 
Tides and Currents Weather Stations Pressure Air Temp Water Temp Dewpoint Dewpoint Depression Visibility Wind Speed Wind Dir Waves Ship Positions

Leader Sw

Last reported at 2017-Nov-18 03:25 UTC. Time now 2017-Nov-18 08:34 UTC.
Position N 34°31' E 135°23'.

Length 117 m; draft 5.6 m.

Type: Cargo ship. MMSI: 371968000.

Date/timePositionNaut miles runAvg speedWind from/ knotsBaromVisibWave heightAir tempDewpointWater temp
2017-Nov-18 03:25N 34°31' E 135°23'1 2.8
2017-Nov-18 02:57N 34°32' E 135°23'1 3.2
2017-Nov-18 02:29N 34°32' E 135°21'0 0.2
2017-Nov-18 01:49N 34°32' E 135°21'0 0.1
2017-Nov-18 01:19N 34°32' E 135°21'0 0.0
2017-Nov-17 23:43N 34°32' E 135°21'0 0.0
2017-Nov-17 22:43N 34°32' E 135°21'0 0.0
2017-Nov-17 20:19N 34°32' E 135°21'0 0.0
2017-Nov-17 19:25N 34°32' E 135°21'0 0.1
2017-Nov-17 18:43N 34°32' E 135°21'0 0.0
2017-Nov-17 18:25N 34°32' E 135°21'0 0.1
2017-Nov-17 17:37N 34°32' E 135°21'0 0.2
2017-Nov-17 17:19N 34°32' E 135°21'0 0.0
2017-Nov-17 16:49N 34°32' E 135°21'0 0.1
2017-Nov-17 16:25N 34°32' E 135°21'0 0.0
2017-Nov-17 15:07N 34°32' E 135°21'0 0.1
2017-Nov-17 14:55N 34°32' E 135°21'0 0.0
2017-Nov-17 14:25N 34°32' E 135°21'0 0.0
2017-Nov-17 13:55N 34°32' E 135°21'0 0.1
2017-Nov-17 13:25N 34°32' E 135°21'0 0.1
2017-Nov-17 12:43N 34°32' E 135°21'0 0.0
2017-Nov-17 10:55N 34°32' E 135°21'0 0.1
2017-Nov-17 09:37N 34°32' E 135°21'0 0.0
2017-Nov-17 09:19N 34°32' E 135°21'0 0.0
2017-Nov-17 07:55N 34°32' E 135°21'0 0.0
2017-Nov-17 06:31N 34°32' E 135°21'0 0.1
2017-Nov-17 06:25N 34°32' E 135°21'0 0.0
2017-Nov-17 05:43N 34°32' E 135°21'0 0.0
2017-Nov-17 05:25N 34°32' E 135°21'0 0.0
2017-Nov-17 00:30N 34°32' E 135°21'0 0.0
2017-Nov-16 21:24N 34°32' E 135°21'0 0.2
2017-Nov-16 21:00N 34°32' E 135°21'0 0.2
2017-Nov-16 20:30N 34°32' E 135°21'0 0.0
2017-Nov-16 19:54N 34°32' E 135°21'0 0.2
2017-Nov-16 19:30N 34°32' E 135°21'0 0.1
2017-Nov-16 17:00N 34°32' E 135°21'0 0.1
2017-Nov-16 16:06N 34°32' E 135°21'0 0.0
2017-Nov-16 15:54N 34°32' E 135°21'0 0.0
2017-Nov-16 13:12N 34°32' E 135°21'0 0.0
2017-Nov-16 12:48N 34°32' E 135°21'0 0.0
2017-Nov-16 12:18N 34°32' E 135°21'0 0.0
2017-Nov-16 05:42N 34°32' E 135°21'0 0.0
2017-Nov-16 05:18N 34°32' E 135°21'0 0.3
2017-Nov-16 04:59N 34°32' E 135°21'2 3.7
2017-Nov-16 04:28N 34°31' E 135°19'511.4
2017-Nov-16 04:00N 34°28' E 135°14'611.2
2017-Nov-16 03:28N 34°25' E 135°08'12 9.9
2017-Nov-16 02:16N 34°15' E 134°59'310.4
2017-Nov-16 02:00N 34°12' E 134°59'611.0
2017-Nov-16 01:30N 34°07' E 134°59'  
2017-Nov-10 11:06N 34°55' E 139°26'311.1
2017-Nov-10 10:51N 34°57' E 139°28'511.1
2017-Nov-10 10:24N 34°60' E 139°33'511.6
2017-Nov-10 10:00N 35°03' E 139°38'612.2
2017-Nov-10 09:30N 35°07' E 139°43'612.2
2017-Nov-10 09:00N 35°12' E 139°46'511.2
2017-Nov-10 08:30N 35°18' E 139°44'5 9.8
2017-Nov-10 08:00N 35°22' E 139°42'4 8.0
2017-Nov-10 07:30N 35°26' E 139°42'1 2.9
2017-Nov-10 07:00N 35°27' E 139°41'0 0.2
2017-Nov-10 06:29N 35°27' E 139°41'0 0.0
2017-Nov-10 05:59N 35°27' E 139°41'0 0.0
2017-Nov-10 05:29N 35°27' E 139°41'0 0.0
2017-Nov-10 04:59N 35°27' E 139°41'0 0.0
2017-Nov-10 04:29N 35°27' E 139°41'0 0.0
2017-Nov-10 03:59N 35°27' E 139°41'0 0.0
2017-Nov-10 03:28N 35°27' E 139°41'0 0.0
2017-Nov-10 02:58N 35°27' E 139°41'0 0.0
2017-Nov-10 02:28N 35°27' E 139°41'0 0.0
2017-Nov-10 01:55N 35°27' E 139°41'0 0.0
2017-Nov-10 01:28N 35°27' E 139°41'0 0.0
2017-Nov-10 00:58N 35°27' E 139°41'0 0.0
2017-Nov-10 00:28N 35°27' E 139°41'0 0.0
2017-Nov-09 23:58N 35°27' E 139°41'0 0.0
2017-Nov-09 23:28N 35°27' E 139°41'0 0.0
2017-Nov-09 22:58N 35°27' E 139°41'0 0.0
2017-Nov-09 22:28N 35°27' E 139°41'0 0.0
2017-Nov-09 21:55N 35°27' E 139°41'0 0.0
2017-Nov-09 21:28N 35°27' E 139°41'0 0.0
2017-Nov-09 20:58N 35°27' E 139°41'0 0.0
2017-Nov-09 20:25N 35°27' E 139°41'0 0.0
2017-Nov-09 19:58N 35°27' E 139°41'0 0.0
2017-Nov-09 19:28N 35°27' E 139°41'0 0.0
2017-Nov-09 18:58N 35°27' E 139°41'0 0.0
2017-Nov-09 18:28N 35°27' E 139°41'0 0.0
2017-Nov-09 17:58N 35°27' E 139°41'0 0.0
2017-Nov-09 17:28N 35°27' E 139°41'0 0.0
2017-Nov-09 16:58N 35°27' E 139°41'0 0.0
2017-Nov-09 16:28N 35°27' E 139°41'0 0.0
2017-Nov-09 15:58N 35°27' E 139°41'0 0.0
2017-Nov-09 15:28N 35°27' E 139°41'0 0.0
2017-Nov-09 14:58N 35°27' E 139°41'0 0.0
2017-Nov-09 14:25N 35°27' E 139°41'0 0.0
2017-Nov-09 13:58N 35°27' E 139°41'0 0.0
2017-Nov-09 13:28N 35°27' E 139°41'0 0.0
2017-Nov-09 12:58N 35°27' E 139°41'0 0.0
2017-Nov-09 12:28N 35°27' E 139°41'0 0.0
2017-Nov-09 11:58N 35°27' E 139°41'0 0.0
2017-Nov-09 11:28N 35°27' E 139°41'0 0.0
2017-Nov-09 10:58N 35°27' E 139°41'0 0.0
2017-Nov-09 10:28N 35°27' E 139°41'0 0.0
2017-Nov-09 09:58N 35°27' E 139°41'0 0.0
2017-Nov-09 09:28N 35°27' E 139°41'0 0.0
2017-Nov-09 08:58N 35°27' E 139°41'0 0.0
2017-Nov-09 08:28N 35°27' E 139°41'0 0.0
2017-Nov-09 07:58N 35°27' E 139°41'0 0.0
2017-Nov-09 07:28N 35°27' E 139°41'0 0.0
2017-Nov-09 06:58N 35°27' E 139°41'0 0.0
2017-Nov-09 06:28N 35°27' E 139°41'0 0.0
2017-Nov-09 05:55N 35°27' E 139°41'0 0.0
2017-Nov-09 05:28N 35°27' E 139°41'0 0.0
2017-Nov-09 04:58N 35°27' E 139°41'0 0.0
2017-Nov-09 04:28N 35°27' E 139°41'0 0.0
2017-Nov-09 03:58N 35°27' E 139°41'0 0.0
2017-Nov-09 03:25N 35°27' E 139°41'0 0.0
2017-Nov-09 02:58N 35°27' E 139°41'0 0.0
2017-Nov-09 02:28N 35°27' E 139°41'0 0.0
2017-Nov-09 01:58N 35°27' E 139°41'0 0.0
2017-Nov-09 01:28N 35°27' E 139°41'0 0.0
2017-Nov-09 00:58N 35°27' E 139°41'0 0.0
2017-Nov-09 00:28N 35°27' E 139°41'0 0.0
2017-Nov-08 23:58N 35°27' E 139°41'0 0.0
2017-Nov-08 23:28N 35°27' E 139°41'0 0.0
2017-Nov-08 22:58N 35°27' E 139°41'0 0.0
2017-Nov-08 22:28N 35°27' E 139°41'0 0.0
2017-Nov-08 21:58N 35°27' E 139°41'0 0.0
2017-Nov-08 21:28N 35°27' E 139°41'0 0.0
2017-Nov-08 20:58N 35°27' E 139°41'0 0.0
2017-Nov-08 20:28N 35°27' E 139°41'0 0.0
2017-Nov-08 19:58N 35°27' E 139°41'0 0.0
2017-Nov-08 19:28N 35°27' E 139°41'0 0.0
2017-Nov-08 18:58N 35°27' E 139°41'0 0.0
2017-Nov-08 18:28N 35°27' E 139°41'0 0.0
2017-Nov-08 17:58N 35°27' E 139°41'0 0.0
2017-Nov-08 17:31N 35°27' E 139°41'0 0.0
2017-Nov-08 17:01N 35°27' E 139°41'0 0.0
2017-Nov-08 16:31N 35°27' E 139°41'0 0.0
2017-Nov-08 16:00N 35°27' E 139°41'0 0.0
2017-Nov-08 15:30N 35°27' E 139°41'0 0.0
2017-Nov-08 15:00N 35°27' E 139°41'0 0.0
2017-Nov-08 14:30N 35°27' E 139°41'0 0.0
2017-Nov-08 14:00N 35°27' E 139°41'0 0.0
2017-Nov-08 13:30N 35°27' E 139°41'0 0.0
2017-Nov-08 12:57N 35°27' E 139°41'0 0.0
2017-Nov-08 12:30N 35°27' E 139°41'0 0.0
2017-Nov-08 11:57N 35°27' E 139°41'0 0.0
2017-Nov-08 11:27N 35°27' E 139°41'0 0.0
2017-Nov-08 10:57N 35°27' E 139°41'0 0.0
2017-Nov-08 10:30N 35°27' E 139°41'0 0.0
2017-Nov-08 10:00N 35°27' E 139°41'0 0.0
2017-Nov-08 09:24N 35°27' E 139°41'0 0.0
2017-Nov-08 09:00N 35°27' E 139°41'0 0.0
2017-Nov-08 08:30N 35°27' E 139°41'0 0.0
2017-Nov-08 08:00N 35°27' E 139°41'0 0.0
2017-Nov-08 07:30N 35°27' E 139°41'0 0.0
2017-Nov-08 07:00N 35°27' E 139°41'0 0.0
2017-Nov-08 06:30N 35°27' E 139°41'0 0.0
2017-Nov-08 06:00N 35°27' E 139°41'0 0.0
2017-Nov-08 05:30N 35°27' E 139°41'0 0.0
2017-Nov-08 05:00N 35°27' E 139°41'0 0.0
2017-Nov-08 04:30N 35°27' E 139°41'0 0.0
2017-Nov-08 04:00N 35°27' E 139°41'0 0.0
2017-Nov-08 03:30N 35°27' E 139°41'  
Track history (hours):
 
Tides and Currents Weather Stations Pressure Air Temp Water Temp Dewpoint Dewpoint Depression Visibility Wind Speed Wind Dir Waves Ship Positions

Leader Sw

Last reported at 2017-Nov-18 03:25 UTC. Time now 2017-Nov-18 08:34 UTC.
Position N 34°31' E 135°23'.

Length 117 m; draft 5.6 m.

Type: Cargo ship. MMSI: 371968000.

Date/timePositionNaut miles runAvg speedWind from/ knotsBaromVisibWave heightAir tempDewpointWater temp
2017-Nov-18 03:25N 34°31' E 135°23'1 2.8
2017-Nov-18 02:57N 34°32' E 135°23'1 3.2
2017-Nov-18 02:29N 34°32' E 135°21'0 0.2
2017-Nov-18 01:49N 34°32' E 135°21'0 0.1
2017-Nov-18 01:19N 34°32' E 135°21'0 0.0
2017-Nov-17 23:43N 34°32' E 135°21'0 0.0
2017-Nov-17 22:43N 34°32' E 135°21'0 0.0
2017-Nov-17 20:19N 34°32' E 135°21'0 0.0
2017-Nov-17 19:25N 34°32' E 135°21'0 0.1
2017-Nov-17 18:43N 34°32' E 135°21'0 0.0
2017-Nov-17 18:25N 34°32' E 135°21'0 0.1
2017-Nov-17 17:37N 34°32' E 135°21'0 0.2
2017-Nov-17 17:19N 34°32' E 135°21'0 0.0
2017-Nov-17 16:49N 34°32' E 135°21'0 0.1
2017-Nov-17 16:25N 34°32' E 135°21'0 0.0
2017-Nov-17 15:07N 34°32' E 135°21'0 0.1
2017-Nov-17 14:55N 34°32' E 135°21'0 0.0
2017-Nov-17 14:25N 34°32' E 135°21'0 0.0
2017-Nov-17 13:55N 34°32' E 135°21'0 0.1
2017-Nov-17 13:25N 34°32' E 135°21'0 0.1
2017-Nov-17 12:43N 34°32' E 135°21'0 0.0
2017-Nov-17 10:55N 34°32' E 135°21'0 0.1
2017-Nov-17 09:37N 34°32' E 135°21'0 0.0
2017-Nov-17 09:19N 34°32' E 135°21'0 0.0
2017-Nov-17 07:55N 34°32' E 135°21'0 0.0
2017-Nov-17 06:31N 34°32' E 135°21'0 0.1
2017-Nov-17 06:25N 34°32' E 135°21'0 0.0
2017-Nov-17 05:43N 34°32' E 135°21'0 0.0
2017-Nov-17 05:25N 34°32' E 135°21'0 0.0
2017-Nov-17 00:30N 34°32' E 135°21'0 0.0
2017-Nov-16 21:24N 34°32' E 135°21'0 0.2
2017-Nov-16 21:00N 34°32' E 135°21'0 0.2
2017-Nov-16 20:30N 34°32' E 135°21'0 0.0
2017-Nov-16 19:54N 34°32' E 135°21'0 0.2
2017-Nov-16 19:30N 34°32' E 135°21'0 0.1
2017-Nov-16 17:00N 34°32' E 135°21'0 0.1
2017-Nov-16 16:06N 34°32' E 135°21'0 0.0
2017-Nov-16 15:54N 34°32' E 135°21'0 0.0
2017-Nov-16 13:12N 34°32' E 135°21'0 0.0
2017-Nov-16 12:48N 34°32' E 135°21'0 0.0
2017-Nov-16 12:18N 34°32' E 135°21'0 0.0
2017-Nov-16 05:42N 34°32' E 135°21'0 0.0
2017-Nov-16 05:18N 34°32' E 135°21'0 0.3
2017-Nov-16 04:59N 34°32' E 135°21'2 3.7
2017-Nov-16 04:28N 34°31' E 135°19'511.4
2017-Nov-16 04:00N 34°28' E 135°14'611.2
2017-Nov-16 03:28N 34°25' E 135°08'12 9.9
2017-Nov-16 02:16N 34°15' E 134°59'310.4
2017-Nov-16 02:00N 34°12' E 134°59'611.0
2017-Nov-16 01:30N 34°07' E 134°59'  
2017-Nov-10 11:06N 34°55' E 139°26'311.1
2017-Nov-10 10:51N 34°57' E 139°28'511.1
2017-Nov-10 10:24N 34°60' E 139°33'511.6
2017-Nov-10 10:00N 35°03' E 139°38'612.2
2017-Nov-10 09:30N 35°07' E 139°43'612.2
2017-Nov-10 09:00N 35°12' E 139°46'511.2
2017-Nov-10 08:30N 35°18' E 139°44'5 9.8
2017-Nov-10 08:00N 35°22' E 139°42'4 8.0
2017-Nov-10 07:30N 35°26' E 139°42'1 2.9
2017-Nov-10 07:00N 35°27' E 139°41'0 0.2
2017-Nov-10 06:29N 35°27' E 139°41'0 0.0
2017-Nov-10 05:59N 35°27' E 139°41'0 0.0
2017-Nov-10 05:29N 35°27' E 139°41'0 0.0
2017-Nov-10 04:59N 35°27' E 139°41'0 0.0
2017-Nov-10 04:29N 35°27' E 139°41'0 0.0
2017-Nov-10 03:59N 35°27' E 139°41'0 0.0
2017-Nov-10 03:28N 35°27' E 139°41'0 0.0
2017-Nov-10 02:58N 35°27' E 139°41'0 0.0
2017-Nov-10 02:28N 35°27' E 139°41'0 0.0
2017-Nov-10 01:55N 35°27' E 139°41'0 0.0
2017-Nov-10 01:28N 35°27' E 139°41'0 0.0
2017-Nov-10 00:58N 35°27' E 139°41'0 0.0
2017-Nov-10 00:28N 35°27' E 139°41'0 0.0
2017-Nov-09 23:58N 35°27' E 139°41'0 0.0
2017-Nov-09 23:28N 35°27' E 139°41'0 0.0
2017-Nov-09 22:58N 35°27' E 139°41'0 0.0
2017-Nov-09 22:28N 35°27' E 139°41'0 0.0
2017-Nov-09 21:55N 35°27' E 139°41'0 0.0
2017-Nov-09 21:28N 35°27' E 139°41'0 0.0
2017-Nov-09 20:58N 35°27' E 139°41'0 0.0
2017-Nov-09 20:25N 35°27' E 139°41'0 0.0
2017-Nov-09 19:58N 35°27' E 139°41'0 0.0
2017-Nov-09 19:28N 35°27' E 139°41'0 0.0
2017-Nov-09 18:58N 35°27' E 139°41'0 0.0
2017-Nov-09 18:28N 35°27' E 139°41'0 0.0
2017-Nov-09 17:58N 35°27' E 139°41'0 0.0
2017-Nov-09 17:28N 35°27' E 139°41'0 0.0
2017-Nov-09 16:58N 35°27' E 139°41'0 0.0
2017-Nov-09 16:28N 35°27' E 139°41'0 0.0
2017-Nov-09 15:58N 35°27' E 139°41'0 0.0
2017-Nov-09 15:28N 35°27' E 139°41'0 0.0
2017-Nov-09 14:58N 35°27' E 139°41'0 0.0
2017-Nov-09 14:25N 35°27' E 139°41'0 0.0
2017-Nov-09 13:58N 35°27' E 139°41'0 0.0
2017-Nov-09 13:28N 35°27' E 139°41'0 0.0
2017-Nov-09 12:58N 35°27' E 139°41'0 0.0
2017-Nov-09 12:28N 35°27' E 139°41'0 0.0
2017-Nov-09 11:58N 35°27' E 139°41'0 0.0
2017-Nov-09 11:28N 35°27' E 139°41'0 0.0
2017-Nov-09 10:58N 35°27' E 139°41'0 0.0
2017-Nov-09 10:28N 35°27' E 139°41'0 0.0
2017-Nov-09 09:58N 35°27' E 139°41'0 0.0
2017-Nov-09 09:28N 35°27' E 139°41'0 0.0
2017-Nov-09 08:58N 35°27' E 139°41'0 0.0
2017-Nov-09 08:28N 35°27' E 139°41'0 0.0
2017-Nov-09 07:58N 35°27' E 139°41'0 0.0
2017-Nov-09 07:28N 35°27' E 139°41'0 0.0
2017-Nov-09 06:58N 35°27' E 139°41'0 0.0
2017-Nov-09 06:28N 35°27' E 139°41'0 0.0
2017-Nov-09 05:55N 35°27' E 139°41'0 0.0
2017-Nov-09 05:28N 35°27' E 139°41'0 0.0
2017-Nov-09 04:58N 35°27' E 139°41'0 0.0
2017-Nov-09 04:28N 35°27' E 139°41'0 0.0
2017-Nov-09 03:58N 35°27' E 139°41'0 0.0
2017-Nov-09 03:25N 35°27' E 139°41'0 0.0
2017-Nov-09 02:58N 35°27' E 139°41'0 0.0
2017-Nov-09 02:28N 35°27' E 139°41'0 0.0
2017-Nov-09 01:58N 35°27' E 139°41'0 0.0
2017-Nov-09 01:28N 35°27' E 139°41'0 0.0
2017-Nov-09 00:58N 35°27' E 139°41'0 0.0
2017-Nov-09 00:28N 35°27' E 139°41'0 0.0
2017-Nov-08 23:58N 35°27' E 139°41'0 0.0
2017-Nov-08 23:28N 35°27' E 139°41'0 0.0
2017-Nov-08 22:58N 35°27' E 139°41'0 0.0
2017-Nov-08 22:28N 35°27' E 139°41'0 0.0
2017-Nov-08 21:58N 35°27' E 139°41'0 0.0
2017-Nov-08 21:28N 35°27' E 139°41'0 0.0
2017-Nov-08 20:58N 35°27' E 139°41'0 0.0
2017-Nov-08 20:28N 35°27' E 139°41'0 0.0
2017-Nov-08 19:58N 35°27' E 139°41'0 0.0
2017-Nov-08 19:28N 35°27' E 139°41'0 0.0
2017-Nov-08 18:58N 35°27' E 139°41'0 0.0
2017-Nov-08 18:28N 35°27' E 139°41'0 0.0
2017-Nov-08 17:58N 35°27' E 139°41'0 0.0
2017-Nov-08 17:31N 35°27' E 139°41'0 0.0
2017-Nov-08 17:01N 35°27' E 139°41'0 0.0
2017-Nov-08 16:31N 35°27' E 139°41'0 0.0
2017-Nov-08 16:00N 35°27' E 139°41'0 0.0
2017-Nov-08 15:30N 35°27' E 139°41'0 0.0
2017-Nov-08 15:00N 35°27' E 139°41'0 0.0
2017-Nov-08 14:30N 35°27' E 139°41'0 0.0
2017-Nov-08 14:00N 35°27' E 139°41'0 0.0
2017-Nov-08 13:30N 35°27' E 139°41'0 0.0
2017-Nov-08 12:57N 35°27' E 139°41'0 0.0
2017-Nov-08 12:30N 35°27' E 139°41'0 0.0
2017-Nov-08 11:57N 35°27' E 139°41'0 0.0
2017-Nov-08 11:27N 35°27' E 139°41'0 0.0
2017-Nov-08 10:57N 35°27' E 139°41'0 0.0
2017-Nov-08 10:30N 35°27' E 139°41'0 0.0
2017-Nov-08 10:00N 35°27' E 139°41'0 0.0
2017-Nov-08 09:24N 35°27' E 139°41'0 0.0
2017-Nov-08 09:00N 35°27' E 139°41'0 0.0
2017-Nov-08 08:30N 35°27' E 139°41'0 0.0
2017-Nov-08 08:00N 35°27' E 139°41'0 0.0
2017-Nov-08 07:30N 35°27' E 139°41'0 0.0
2017-Nov-08 07:00N 35°27' E 139°41'0 0.0
2017-Nov-08 06:30N 35°27' E 139°41'0 0.0
2017-Nov-08 06:00N 35°27' E 139°41'0 0.0
2017-Nov-08 05:30N 35°27' E 139°41'0 0.0
2017-Nov-08 05:00N 35°27' E 139°41'0 0.0
2017-Nov-08 04:30N 35°27' E 139°41'0 0.0
2017-Nov-08 04:00N 35°27' E 139°41'0 0.0
2017-Nov-08 03:30N 35°27' E 139°41'  

Dump ship's entire track history